Time;durP1;ratioP1;P1;durP2;ratioP2;P2;SDS_P1;SDS_P2;PMS_P1;PMS_P2;Temp;Humidity;BMP_temperature;BMP_pressure;BME280_temperature;BME280_humidity;BME280_pressure;Samples;Min_cycle;Max_cycle;Signal;HPM_P1;HPM_P2
2023/04/19 00:00:07;;;;;;;6.47;3.80;;;7.50;92.50;;;7.85;76.09;98589.75;5051600;28;20446;-74
2023/04/19 00:02:34;;;;;;;4.27;3.77;;;7.50;92.30;;;7.81;75.60;98575.84;5049216;28;20456;-73
2023/04/19 00:05:02;;;;;;;6.47;4.40;;;7.40;92.30;;;7.51;76.11;98557.81;5047612;28;20463;-73
2023/04/19 00:07:29;;;;;;;5.67;4.00;;;7.40;92.70;;;7.48;76.96;98551.94;5050160;28;20495;-75
2023/04/19 00:09:57;;;;;;;6.43;4.37;;;7.30;93.20;;;7.68;76.89;98597.16;5045323;28;20464;-72
2023/04/19 00:12:24;;;;;;;8.50;5.10;;;7.20;93.50;;;7.63;77.43;98586.94;5045749;28;20482;-73
2023/04/19 00:14:51;;;;;;;5.37;4.60;;;7.10;93.90;;;7.85;76.18;98590.59;5046151;28;20814;-72
2023/04/19 00:17:20;;;;;;;5.67;4.70;;;7.20;94.30;;;7.65;77.25;98587.59;5066277;28;20581;-74
2023/04/19 00:19:47;;;;;;;6.47;4.40;;;7.20;93.60;;;7.56;77.41;98592.22;5037609;28;20522;-71
2023/04/19 00:22:16;;;;;;;5.13;4.20;;;7.10;94.00;;;7.26;77.77;98546.44;5037447;28;20530;-71
2023/04/19 00:24:43;;;;;;;6.87;5.50;;;7.00;94.30;;;7.36;78.08;98589.19;5066656;28;20475;-72
2023/04/19 00:27:10;;;;;;;7.07;4.97;;;6.80;94.90;;;7.19;79.02;98573.19;5031002;28;20809;-75
2023/04/19 00:29:37;;;;;;;6.63;5.43;;;6.70;95.80;;;7.08;79.20;98584.34;5033361;28;20562;-72
2023/04/19 00:32:07;;;;;;;8.10;5.30;;;6.60;96.80;;;7.03;80.17;98601.00;5033389;28;20466;-77
2023/04/19 00:34:36;;;;;;;7.10;4.50;;;6.60;98.00;;;6.78;80.87;98570.78;5068028;28;20460;-74
2023/04/19 00:37:04;;;;;;;7.70;5.50;;;6.50;98.70;;;6.66;81.31;98548.88;5046111;28;20455;-74
2023/04/19 00:39:31;;;;;;;6.57;4.23;;;6.50;99.80;;;6.82;81.16;98579.34;5050420;28;20455;-73
2023/04/19 00:42:00;;;;;;;9.80;5.30;;;6.50;99.40;;;6.69;81.62;98564.63;5064614;28;20482;-74
2023/04/19 00:44:27;;;;;;;9.80;5.47;;;6.40;99.90;;;6.75;81.25;98574.69;5049707;28;20443;-73
2023/04/19 00:46:56;;;;;;;8.10;4.77;;;6.30;99.90;;;6.59;81.55;98554.13;5049062;28;20440;-75
2023/04/19 00:49:24;;;;;;;8.77;5.50;;;6.20;99.90;;;6.72;80.40;98566.97;5050307;28;20946;-73
2023/04/19 00:51:54;;;;;;;11.10;7.10;;;6.20;99.90;;;6.68;81.02;98565.66;5041390;28;20480;-74
2023/04/19 00:54:22;;;;;;;9.77;6.33;;;6.20;99.90;;;6.62;82.46;98571.75;5036066;28;20488;-72
2023/04/19 00:56:49;;;;;;;11.40;6.57;;;6.30;99.90;;;6.42;82.13;98518.47;5033838;28;20461;-72
2023/04/19 00:59:17;;;;;;;18.50;9.37;;;6.40;99.90;;;6.87;81.39;98558.13;5039833;28;20954;-71
2023/04/19 01:01:44;;;;;;;11.10;6.90;;;6.60;99.90;;;7.15;80.45;98561.13;5029242;28;20471;-73
2023/04/19 01:04:11;;;;;;;11.97;7.77;;;6.70;99.90;;;7.35;79.67;98569.56;5035638;28;20447;-73
2023/04/19 01:06:41;;;;;;;14.83;7.37;;;6.80;99.00;;;7.47;79.29;98561.03;5033422;28;20468;-72
2023/04/19 01:09:09;;;;;;;13.00;7.43;;;6.90;98.00;;;7.20;79.65;98552.50;5035628;28;20930;-72
2023/04/19 01:11:37;;;;;;;12.10;7.30;;;6.80;96.50;;;7.09;80.49;98549.25;5031529;28;20455;-74
2023/04/19 01:14:04;;;;;;;13.67;8.40;;;6.90;96.80;;;7.25;80.16;98562.72;5037088;28;21449;-72
2023/04/19 01:16:32;;;;;;;8.50;5.67;;;6.90;97.00;;;7.07;79.78;98523.56;5045404;28;20521;-73
2023/04/19 01:18:59;;;;;;;11.97;5.63;;;6.90;96.20;;;7.33;79.16;98550.06;5030576;28;20506;-72
2023/04/19 01:21:28;;;;;;;7.17;4.93;;;6.90;96.00;;;7.22;79.98;98547.81;5037595;28;20463;-72
2023/04/19 01:23:56;;;;;;;6.33;4.90;;;6.90;96.30;;;7.39;79.75;98553.88;5039885;28;20466;-74
2023/04/19 01:26:25;;;;;;;7.77;4.40;;;6.90;97.40;;;7.58;78.58;98552.53;5052483;28;20476;-73
2023/04/19 01:28:52;;;;;;;6.57;4.60;;;7.10;95.70;;;7.45;77.98;98533.50;5067622;28;20526;-71
2023/04/19 01:31:19;;;;;;;6.27;4.50;;;7.10;95.20;;;7.32;79.43;98540.31;5038440;28;20448;-71
2023/04/19 01:33:48;;;;;;;7.40;4.63;;;7.00;95.50;;;7.22;79.64;98521.75;5038943;28;20483;-71
2023/04/19 01:36:17;;;;;;;10.80;5.73;;;7.00;96.00;;;7.47;78.87;98528.75;5038109;28;20460;-72
2023/04/19 01:38:46;;;;;;;8.20;5.90;;;7.00;96.20;;;7.46;78.70;98543.22;5032364;28;20495;-71
2023/04/19 01:41:15;;;;;;;6.53;5.30;;;7.00;95.50;;;7.48;78.67;98546.56;5038762;28;21133;-72
2023/04/19 01:43:42;;;;;;;8.47;6.60;;;7.00;95.40;;;7.31;79.63;98530.59;5032362;28;20478;-73
2023/04/19 01:46:10;;;;;;;8.00;5.63;;;7.00;95.40;;;7.20;79.27;98521.13;5034902;28;20464;-73
2023/04/19 01:48:37;;;;;;;9.00;5.33;;;7.00;95.50;;;7.11;79.94;98529.44;5036332;28;20460;-73
2023/04/19 01:51:04;;;;;;;7.53;4.77;;;6.80;95.70;;;7.00;80.77;98530.69;5065204;28;20444;-72
2023/04/19 01:53:32;;;;;;;7.67;5.30;;;6.70;96.80;;;6.30;80.91;98431.34;5045775;28;20471;-73
2023/04/19 01:55:59;;;;;;;8.13;5.43;;;6.60;97.50;;;6.56;82.36;98510.66;5044301;28;21034;-72
2023/04/19 01:58:28;;;;;;;9.20;6.43;;;6.50;98.70;;;6.74;82.48;98527.31;5047166;28;20461;-73
2023/04/19 02:00:55;;;;;;;11.23;6.77;;;6.50;99.60;;;6.70;82.48;98522.50;5047178;28;20465;-74
2023/04/19 02:03:22;;;;;;;8.97;5.37;;;6.40;99.90;;;6.73;82.48;98528.34;5064612;28;21041;-73
2023/04/19 02:05:49;;;;;;;9.47;6.63;;;6.40;99.90;;;6.66;82.69;98524.72;5041477;28;21189;-72
2023/04/19 02:08:17;;;;;;;7.30;5.90;;;6.30;99.90;;;6.67;82.78;98526.38;5047984;28;20445;-73
2023/04/19 02:10:44;;;;;;;9.80;5.87;;;6.30;99.90;;;6.55;82.99;98503.63;5049343;28;20927;-72
2023/04/19 02:13:11;;;;;;;9.70;6.07;;;6.30;99.90;;;6.49;83.21;98495.28;5046544;28;20948;-74
2023/04/19 02:15:40;;;;;;;8.60;5.40;;;6.20;99.90;;;6.63;83.23;98517.84;5052766;28;20466;-72
2023/04/19 02:18:08;;;;;;;11.57;6.63;;;6.30;99.90;;;6.65;82.57;98515.00;5036391;28;20449;-74
2023/04/19 02:20:36;;;;;;;11.00;5.47;;;6.30;99.90;;;6.52;83.59;98511.03;5041020;28;20489;-73
2023/04/19 02:23:03;;;;;;;8.47;5.50;;;6.20;99.90;;;6.23;83.63;98479.50;5070713;28;20508;-74
2023/04/19 02:25:31;;;;;;;9.90;5.50;;;6.10;99.90;;;6.52;83.43;98511.03;5047142;28;20461;-75
2023/04/19 02:27:58;;;;;;;10.43;7.00;;;6.10;99.90;;;6.36;84.28;98505.75;5036763;28;20460;-73
2023/04/19 02:30:25;;;;;;;11.10;5.60;;;6.00;99.90;;;6.30;84.13;98496.56;5036146;28;20479;-72
2023/04/19 02:32:54;;;;;;;9.40;6.20;;;5.90;99.90;;;6.10;84.72;98482.75;5028995;28;20521;-73
2023/04/19 02:35:21;;;;;;;8.63;5.10;;;5.80;99.90;;;6.16;85.17;98497.31;5038874;28;20493;-73
2023/04/19 02:37:49;;;;;;;14.60;7.73;;;5.80;99.90;;;5.86;85.35;98464.88;5036175;28;20460;-72
2023/04/19 02:40:16;;;;;;;13.30;8.43;;;5.80;99.90;;;5.98;85.47;98474.22;5035927;28;20469;-72
2023/04/19 02:42:45;;;;;;;14.60;7.70;;;5.70;99.90;;;6.01;85.90;98491.81;5032057;28;20986;-73
2023/04/19 02:45:12;;;;;;;10.67;6.43;;;5.70;99.90;;;5.86;86.43;98489.88;5036799;28;20451;-73
2023/04/19 02:47:39;;;;;;;8.90;5.80;;;5.70;99.90;;;5.74;86.82;98475.16;5031731;28;20478;-73
2023/04/19 02:50:09;;;;;;;8.97;5.90;;;5.60;99.90;;;5.80;87.41;98485.19;5055899;28;20952;-72
2023/04/19 02:52:36;;;;;;;8.47;5.03;;;5.60;99.90;;;5.72;87.00;98461.91;5031020;28;20461;-72
2023/04/19 02:55:04;;;;;;;8.00;5.97;;;5.60;99.90;;;5.87;87.32;98488.84;5069102;28;20445;-72
2023/04/19 02:57:32;;;;;;;9.33;5.83;;;5.60;99.90;;;5.87;87.41;98474.59;5030256;28;20805;-72
2023/04/19 02:59:59;;;;;;;9.80;5.47;;;5.60;99.90;;;5.86;87.11;98479.13;5041074;28;20454;-73
2023/04/19 03:02:27;;;;;;;6.80;4.70;;;5.60;99.90;;;5.87;87.49;98483.50;5039340;28;20539;-73
2023/04/19 03:04:54;;;;;;;10.07;5.93;;;5.60;99.90;;;5.81;87.72;98486.84;5035189;28;20481;-74
2023/04/19 03:07:23;;;;;;;9.87;6.60;;;5.60;99.90;;;5.68;88.14;98466.78;5039409;28;20445;-73
2023/04/19 03:09:50;;;;;;;14.03;7.90;;;5.60;99.90;;;5.78;88.56;98474.66;5043835;28;20454;-73
2023/04/19 03:12:18;;;;;;;13.13;6.50;;;5.50;99.90;;;5.41;88.71;98421.66;5037423;28;20550;-73
2023/04/19 03:14:45;;;;;;;16.60;6.90;;;5.50;99.90;;;5.77;88.88;98474.81;5037338;28;21134;-73
2023/04/19 03:17:12;;;;;;;15.40;7.60;;;5.50;99.90;;;5.72;88.60;98463.78;5036382;28;20465;-74
2023/04/19 03:19:40;;;;;;;9.87;6.40;;;5.50;99.90;;;5.55;88.94;98444.22;5039259;28;20454;-73
2023/04/19 03:22:07;;;;;;;12.73;7.43;;;5.50;99.90;;;5.77;89.07;98469.44;5043495;28;21003;-73
2023/04/19 03:24:36;;;;;;;13.33;7.80;;;5.50;99.90;;;5.85;88.76;98460.53;5041114;28;20692;-73
2023/04/19 03:27:03;;;;;;;11.23;7.60;;;5.50;99.90;;;5.44;88.72;98402.56;5038763;28;20446;-73
2023/04/19 03:29:31;;;;;;;14.80;9.40;;;5.50;99.90;;;5.52;87.87;98375.69;5043095;28;20465;-71
2023/04/19 03:31:58;;;;;;;20.03;9.67;;;5.60;99.90;;;6.14;86.95;98454.56;5057325;28;20501;-71
2023/04/19 03:34:25;;;;;;;11.63;6.00;;;5.60;99.90;;;6.08;86.34;98450.75;5037530;28;20475;-72
2023/04/19 03:36:53;;;;;;;12.33;6.73;;;5.60;99.90;;;5.92;86.89;98430.16;5035607;28;20450;-72
2023/04/19 03:39:20;;;;;;;11.67;7.53;;;5.50;99.90;;;5.91;87.96;98449.09;5019917;28;20492;-73
2023/04/19 03:41:49;;;;;;;11.30;5.83;;;5.40;99.90;;;5.89;87.43;98443.06;5067900;28;20478;-73
2023/04/19 03:44:16;;;;;;;10.80;7.30;;;5.40;99.90;;;5.71;88.14;98441.47;5041261;28;20492;-74
2023/04/19 03:46:45;;;;;;;11.87;6.83;;;5.30;99.90;;;5.57;88.95;98432.31;5032812;28;20438;-75
2023/04/19 03:49:12;;;;;;;11.67;6.70;;;5.20;99.90;;;5.56;89.13;98429.81;5057517;28;20494;-73
2023/04/19 03:51:39;;;;;;;11.13;6.63;;;5.20;99.90;;;5.52;88.68;98434.66;5046798;28;20985;-71
2023/04/19 03:54:07;;;;;;;14.43;8.33;;;5.10;99.90;;;5.42;89.96;98434.88;5046477;28;20450;-74
2023/04/19 03:56:34;;;;;;;10.13;6.70;;;5.10;99.90;;;5.43;89.65;98430.34;5050536;28;20458;-73
2023/04/19 03:59:02;;;;;;;13.10;6.97;;;5.10;99.90;;;5.47;89.82;98429.00;5056731;28;20453;-74
2023/04/19 04:01:29;;;;;;;9.27;6.77;;;5.10;99.90;;;5.43;89.89;98427.69;5065560;28;20580;-71
2023/04/19 04:03:57;;;;;;;11.47;7.30;;;5.10;99.90;;;5.48;89.57;98436.88;5045851;28;21163;-73
2023/04/19 04:06:25;;;;;;;10.43;6.60;;;5.10;99.90;;;5.49;88.51;98410.91;5042448;28;20460;-71
2023/04/19 04:08:54;;;;;;;14.93;8.83;;;5.10;99.90;;;5.47;89.39;98437.88;5033290;28;20938;-72
2023/04/19 04:11:24;;;;;;;10.63;7.30;;;5.10;99.90;;;5.54;89.06;98421.97;5039544;28;20535;-74
2023/04/19 04:13:52;;;;;;;14.03;8.03;;;5.10;99.90;;;5.61;89.54;98436.31;5039994;28;20467;-72
2023/04/19 04:16:21;;;;;;;13.70;8.73;;;5.20;99.90;;;5.81;89.13;98438.59;5053407;28;20492;-75
2023/04/19 04:18:48;;;;;;;11.23;7.10;;;5.40;99.90;;;5.68;89.33;98429.25;5070194;28;20468;-74
2023/04/19 04:21:16;;;;;;;9.33;6.97;;;5.40;99.90;;;5.53;90.15;98385.41;5034799;28;20452;-74
2023/04/19 04:23:44;;;;;;;10.80;6.57;;;5.40;99.90;;;5.78;89.31;98422.84;5037534;28;20466;-74
2023/04/19 04:26:12;;;;;;;10.87;6.87;;;5.60;99.90;;;5.98;89.71;98431.31;5031536;28;20551;-73
2023/04/19 04:28:39;;;;;;;12.50;7.90;;;5.60;99.90;;;5.93;89.00;98441.72;5038411;28;20460;-73
2023/04/19 04:31:08;;;;;;;17.87;7.67;;;5.60;99.90;;;5.86;89.11;98420.13;5034749;28;20537;-73
2023/04/19 04:33:37;;;;;;;9.30;6.20;;;5.60;99.90;;;5.72;89.31;98381.47;5036352;28;20455;-77
2023/04/19 04:36:05;;;;;;;11.10;7.10;;;5.70;99.90;;;6.14;88.74;98427.75;5035316;28;20442;-74
2023/04/19 04:38:32;;;;;;;13.90;8.07;;;5.70;99.90;;;6.14;87.96;98433.09;5040856;28;21224;-74
2023/04/19 04:40:59;;;;;;;12.03;7.83;;;5.80;99.90;;;6.34;87.87;98420.03;5038375;28;20453;-74
2023/04/19 04:43:28;;;;;;;13.70;8.50;;;5.90;99.90;;;6.35;88.20;98428.94;5034659;28;20533;-72
2023/04/19 04:45:56;;;;;;;13.23;7.47;;;5.90;99.90;;;6.33;87.18;98394.22;5055744;28;20458;-74
2023/04/19 04:48:24;;;;;;;10.70;6.50;;;6.10;99.90;;;6.39;86.97;98419.50;5055466;28;20463;-74
2023/04/19 04:50:53;;;;;;;11.30;6.90;;;6.10;99.90;;;6.26;88.17;98419.25;5046210;28;20466;-72
2023/04/19 04:53:20;;;;;;;13.03;6.83;;;6.10;99.90;;;6.49;87.64;98425.50;5033863;28;20448;-74
2023/04/19 04:55:47;;;;;;;7.23;5.70;;;6.10;99.90;;;6.37;87.90;98422.38;5051738;28;20861;-74
2023/04/19 04:58:17;;;;;;;7.40;5.60;;;6.10;99.90;;;6.51;87.56;98420.78;5053642;28;20441;-72
2023/04/19 05:00:44;;;;;;;8.90;5.57;;;6.20;99.90;;;6.76;86.39;98425.94;5038693;28;20449;-74
2023/04/19 05:03:11;;;;;;;10.53;5.60;;;6.30;99.90;;;6.69;86.55;98427.69;5032633;28;20517;-72
2023/04/19 05:05:39;;;;;;;8.37;6.03;;;6.40;99.90;;;6.66;86.71;98414.63;5050273;28;20584;-73
2023/04/19 05:08:07;;;;;;;10.83;5.80;;;6.40;99.90;;;7.07;85.28;98422.31;5034577;28;20465;-70
2023/04/19 05:10:35;;;;;;;9.73;6.50;;;6.60;99.90;;;7.18;84.83;98420.19;5019333;28;20466;-70
2023/04/19 05:13:02;;;;;;;10.60;6.43;;;6.70;99.90;;;7.34;84.30;98417.31;5033574;28;20542;-69
2023/04/19 05:15:30;;;;;;;12.00;7.33;;;6.80;99.90;;;7.37;84.15;98418.81;5034026;28;21019;-69
2023/04/19 05:17:57;;;;;;;11.13;7.10;;;6.90;99.90;;;7.00;83.52;98350.69;5036544;28;20452;-73
2023/04/19 05:20:25;;;;;;;13.60;9.00;;;7.00;99.90;;;7.57;82.74;98404.81;5032482;28;20544;-76
2023/04/19 05:22:58;;;;;;;9.77;6.60;;;7.20;99.90;;;7.59;83.14;98421.59;5035651;28;20483;-73
2023/04/19 05:25:29;;;;;;;12.77;7.67;;;7.20;99.90;;;7.64;82.51;98417.31;5029307;28;20454;-71
2023/04/19 05:27:57;;;;;;;6.77;5.10;;;7.30;99.90;;;7.84;82.18;98415.91;5049136;28;20455;-74
2023/04/19 05:30:24;;;;;;;10.70;5.83;;;7.30;99.90;;;7.96;80.69;98418.94;5030450;28;20948;-76
2023/04/19 05:32:52;;;;;;;8.70;6.43;;;7.40;99.20;;;7.86;81.56;98414.72;5067667;28;20463;-78
2023/04/19 05:35:20;;;;;;;11.17;6.50;;;7.40;98.60;;;7.86;81.06;98408.47;5044727;28;20452;-75
2023/04/19 05:37:47;;;;;;;8.97;5.73;;;7.40;98.10;;;7.85;81.88;98377.22;5025863;28;20471;-74
2023/04/19 05:40:18;;;;;;;8.63;6.03;;;7.60;99.90;;;7.99;80.30;98410.50;5026926;28;20459;-75
2023/04/19 05:42:46;;;;;;;9.97;5.33;;;7.50;98.00;;;8.02;80.67;98396.66;5061300;28;20538;-75
2023/04/19 05:45:14;;;;;;;8.90;5.67;;;7.60;98.40;;;7.84;80.74;98406.00;5035553;28;20449;-75
2023/04/19 05:47:41;;;;;;;9.67;6.70;;;7.50;97.20;;;8.03;79.95;98384.88;5031017;28;20623;-75
2023/04/19 05:50:10;;;;;;;8.70;6.10;;;7.60;97.20;;;8.12;80.23;98394.53;5033160;28;20455;-75
2023/04/19 05:52:37;;;;;;;10.83;6.63;;;7.60;97.50;;;8.06;80.04;98403.34;5032286;28;20481;-75
2023/04/19 05:55:05;;;;;;;11.40;6.20;;;7.60;97.20;;;8.44;79.03;98399.59;5055667;28;20453;-74
2023/04/19 05:57:32;;;;;;;9.17;5.83;;;7.80;97.90;;;8.14;80.46;98405.94;5043335;28;20460;-76
2023/04/19 06:00:05;;;;;;;8.33;5.77;;;7.70;96.90;;;8.28;79.28;98404.19;5044887;28;20511;-75
2023/04/19 06:02:32;;;;;;;8.23;6.17;;;7.80;96.70;;;8.38;79.11;98401.19;5041226;28;20471;-75
2023/04/19 06:05:02;;;;;;;10.57;6.50;;;7.80;95.70;;;8.36;79.57;98397.84;5038331;28;20488;-72
2023/04/19 06:07:30;;;;;;;9.00;5.70;;;7.90;96.00;;;8.30;79.01;98385.19;5040240;28;20510;-74
2023/04/19 06:09:57;;;;;;;14.17;8.33;;;8.00;95.60;;;8.26;79.78;98391.94;5037159;28;20514;-72
2023/04/19 06:12:25;;;;;;;8.83;5.37;;;7.90;95.90;;;7.98;79.56;98336.19;5051811;28;20458;-73
2023/04/19 06:14:52;;;;;;;12.50;6.87;;;8.00;96.50;;;8.50;80.65;98388.91;5063960;28;20450;-74
2023/04/19 06:17:23;;;;;;;9.90;7.17;;;8.00;97.70;;;8.55;79.07;98392.88;5046004;28;20448;-70
2023/04/19 06:19:50;;;;;;;10.53;6.17;;;8.20;96.20;;;8.40;79.10;98352.53;5045799;28;20444;-73
2023/04/19 06:22:18;;;;;;;10.03;6.87;;;8.20;95.40;;;8.61;78.98;98386.72;5053423;28;20954;-72
2023/04/19 06:24:45;;;;;;;10.80;6.27;;;8.20;94.50;;;8.59;78.95;98386.09;5040225;28;21134;-73
2023/04/19 06:27:13;;;;;;;11.27;7.40;;;8.20;94.90;;;8.56;79.22;98391.84;5040821;28;20476;-73
2023/04/19 06:29:40;;;;;;;10.17;6.60;;;8.20;95.10;;;8.60;78.50;98385.88;5035942;28;20969;-74
2023/04/19 06:32:07;;;;;;;10.40;6.63;;;8.30;94.50;;;8.73;78.78;98382.50;5034416;28;20442;-72
2023/04/19 06:34:36;;;;;;;12.33;7.47;;;8.30;94.60;;;8.76;77.62;98382.09;5037382;28;20476;-73
2023/04/19 06:37:03;;;;;;;7.57;6.73;;;8.30;94.20;;;8.84;77.88;98386.50;5024158;28;20473;-72
2023/04/19 06:39:30;;;;;;;12.87;6.97;;;8.40;94.40;;;8.78;77.92;98374.66;5027622;28;20470;-72
2023/04/19 06:41:58;;;;;;;9.10;6.57;;;8.40;93.90;;;8.86;78.21;98383.59;5058268;28;20463;-71
2023/04/19 06:44:25;;;;;;;7.93;6.07;;;8.40;94.00;;;8.56;78.10;98329.91;5032969;28;21043;-72
2023/04/19 06:46:53;;;;;;;10.47;7.77;;;8.40;94.40;;;8.87;78.44;98363.72;5026205;28;20466;-72
2023/04/19 06:49:21;;;;;;;10.83;8.27;;;8.50;94.50;;;9.06;77.58;98367.59;5044061;28;20452;-71
2023/04/19 06:51:52;;;;;;;12.47;7.07;;;8.50;94.50;;;9.02;77.61;98369.00;5028105;28;21093;-73
2023/04/19 06:54:19;;;;;;;11.20;7.03;;;8.50;94.40;;;9.14;77.60;98362.06;5023773;28;20465;-73
2023/04/19 06:56:48;;;;;;;10.83;7.67;;;8.60;94.50;;;9.37;77.18;98365.50;5031855;28;20626;-72
2023/04/19 06:59:17;;;;;;;9.03;7.00;;;8.80;94.20;;;9.29;77.82;98358.41;5032685;28;20503;-74
2023/04/19 07:01:46;;;;;;;10.77;6.50;;;8.80;93.90;;;9.33;77.81;98363.22;5029356;28;20944;-72
2023/04/19 07:04:15;;;;;;;11.63;6.70;;;8.80;94.00;;;9.38;77.17;98367.16;5030571;28;20466;-74
2023/04/19 07:06:44;;;;;;;7.83;6.50;;;8.90;93.80;;;9.22;77.38;98355.66;5026037;28;20465;-71
2023/04/19 07:09:12;;;;;;;10.53;7.17;;;8.90;93.30;;;9.33;77.25;98354.28;5028423;28;20463;-72
2023/04/19 07:11:39;;;;;;;8.27;6.07;;;8.90;93.70;;;8.97;79.01;98352.63;5027139;28;20454;-73
2023/04/19 07:14:07;;;;;;;9.60;7.57;;;8.80;93.70;;;9.30;78.37;98355.50;5039824;28;20505;-72
2023/04/19 07:16:34;;;;;;;11.30;7.13;;;8.80;94.50;;;9.35;77.65;98353.06;5024868;28;20960;-72
2023/04/19 07:19:01;;;;;;;11.17;7.90;;;8.90;94.30;;;9.49;78.36;98342.34;5020237;28;20571;-73
2023/04/19 07:21:32;;;;;;;9.50;6.60;;;9.00;94.20;;;9.56;77.28;98331.56;5034752;28;20464;-72
2023/04/19 07:23:59;;;;;;;9.13;5.97;;;9.10;94.10;;;9.75;76.62;98336.22;5028619;28;21085;-72
2023/04/19 07:26:28;;;;;;;11.30;6.77;;;9.30;93.40;;;10.02;75.83;98335.44;5030768;28;20457;-73
2023/04/19 07:28:55;;;;;;;11.87;8.03;;;9.40;93.20;;;10.30;74.40;98337.16;5042192;28;20496;-73
2023/04/19 07:31:24;;;;;;;10.90;7.07;;;9.70;91.70;;;10.06;75.46;98342.94;5030986;28;20461;-72
2023/04/19 07:33:51;;;;;;;11.13;7.47;;;9.70;91.70;;;10.20;74.88;98332.16;5063535;28;20503;-73
2023/04/19 07:36:19;;;;;;;11.03;6.97;;;9.70;91.80;;;10.31;74.12;98339.66;5025812;28;20459;-71
2023/04/19 07:38:47;;;;;;;10.77;6.87;;;9.80;91.20;;;9.96;75.25;98333.56;5034395;28;20516;-72
2023/04/19 07:41:14;;;;;;;9.43;7.27;;;9.70;91.60;;;10.19;75.48;98330.50;5033835;28;20544;-72
2023/04/19 07:43:42;;;;;;;9.37;6.90;;;9.70;92.10;;;10.47;74.41;98335.75;5035023;28;20478;-73
2023/04/19 07:46:11;;;;;;;8.50;6.73;;;9.90;91.90;;;10.38;74.94;98331.53;5033824;28;20466;-71
2023/04/19 07:48:38;;;;;;;12.90;7.53;;;9.90;91.60;;;10.13;76.01;98337.56;5033936;28;21116;-73
2023/04/19 07:51:10;;;;;;;11.93;7.80;;;9.90;91.80;;;9.83;77.02;98315.47;5026827;28;20473;-72
2023/04/19 07:53:40;;;;;;;12.00;7.73;;;9.70;92.60;;;9.87;76.87;98322.94;5038272;28;20488;-70
2023/04/19 07:56:08;;;;;;;14.73;9.17;;;9.60;93.20;;;9.83;77.54;98324.41;5039822;28;20856;-72
2023/04/19 07:58:36;;;;;;;13.10;8.27;;;9.60;93.00;;;9.85;77.80;98326.88;5047953;28;20453;-71
2023/04/19 08:01:05;;;;;;;10.10;7.83;;;9.60;93.30;;;9.77;77.30;98306.31;5038283;28;20470;-71
2023/04/19 08:03:34;;;;;;;14.47;8.77;;;9.60;93.00;;;9.73;77.96;98326.66;5045785;28;20466;-72
2023/04/19 08:06:02;;;;;;;11.13;8.30;;;9.60;93.10;;;9.99;77.05;98325.06;5050485;28;20993;-74
2023/04/19 08:08:30;;;;;;;14.63;11.00;;;9.70;92.60;;;9.11;78.48;98299.63;5046886;28;20523;-73
2023/04/19 08:10:57;;;;;;;15.00;9.17;;;9.50;92.40;;;9.62;78.19;98326.19;5036195;28;20497;-71
2023/04/19 08:13:24;;;;;;;17.07;9.90;;;9.40;93.40;;;9.72;77.61;98319.59;5040507;28;20511;-70
2023/04/19 08:15:52;;;;;;;14.10;9.17;;;9.40;93.10;;;9.47;78.99;98328.19;5033729;28;20547;-69
2023/04/19 08:18:20;;;;;;;14.30;8.90;;;9.40;93.30;;;9.41;78.76;98323.63;5032137;28;20461;-70
2023/04/19 08:20:48;;;;;;;16.47;9.50;;;9.30;93.70;;;9.45;78.85;98320.31;5050892;28;20460;-70
2023/04/19 08:23:16;;;;;;;12.67;8.87;;;9.30;93.90;;;9.47;78.25;98323.66;5032416;28;20464;-70
2023/04/19 08:25:44;;;;;;;11.70;8.33;;;9.30;93.40;;;9.50;78.42;98325.13;5029509;28;21129;-70
2023/04/19 08:28:11;;;;;;;10.87;7.30;;;9.30;93.80;;;9.35;78.17;98323.38;5032633;28;20456;-70
2023/04/19 08:30:40;;;;;;;10.23;7.47;;;9.20;93.00;;;8.94;79.34;98305.31;5029281;28;20447;-73
2023/04/19 08:33:09;;;;;;;10.93;7.53;;;9.00;94.10;;;8.95;80.76;98331.25;5058898;28;20464;-77
2023/04/19 08:35:39;;;;;;;12.07;7.87;;;8.80;96.40;;;9.11;80.38;98324.72;5036140;28;21349;-76
2023/04/19 08:38:06;;;;;;;12.53;8.43;;;8.90;97.70;;;9.11;80.70;98334.66;5067061;28;20465;-75
2023/04/19 08:40:34;;;;;;;11.93;8.03;;;8.90;95.90;;;9.28;80.96;98330.59;5065788;28;20467;-74
2023/04/19 08:43:06;;;;;;;11.97;8.07;;;9.00;98.20;;;9.06;79.81;98327.16;5047301;28;20519;-73
2023/04/19 08:45:34;;;;;;;17.43;9.77;;;9.00;95.00;;;8.96;80.76;98332.09;5029842;28;20514;-77
2023/04/19 08:48:02;;;;;;;12.50;8.03;;;8.90;94.80;;;8.98;80.64;98341.63;5034469;28;20537;-72
2023/04/19 08:50:32;;;;;;;12.23;9.57;;;8.70;96.30;;;8.81;81.14;98348.34;5033966;28;20457;-73
2023/04/19 08:53:02;;;;;;;15.43;10.40;;;8.60;95.80;;;8.54;80.88;98332.81;5030487;28;20467;-72
2023/04/19 08:55:29;;;;;;;14.73;8.90;;;8.50;95.20;;;8.50;80.47;98340.44;5028557;28;21407;-73
2023/04/19 08:57:58;;;;;;;15.37;9.53;;;8.50;94.60;;;8.71;79.44;98330.66;5028583;28;20561;-74
2023/04/19 09:00:25;;;;;;;11.13;7.90;;;8.60;94.30;;;8.62;78.25;98345.31;5029394;28;20463;-73
2023/04/19 09:02:54;;;;;;;11.57;8.80;;;8.60;92.80;;;8.37;77.55;98329.53;5028432;28;20552;-74
2023/04/19 09:05:22;;;;;;;10.37;7.87;;;8.50;91.60;;;8.72;77.86;98331.50;5032505;28;20454;-74
2023/04/19 09:07:49;;;;;;;12.37;8.40;;;8.60;92.30;;;8.93;76.78;98327.91;5035033;28;20453;-71
2023/04/19 09:10:20;;;;;;;11.30;8.40;;;8.70;92.00;;;9.00;75.64;98333.34;5036044;28;20455;-72
2023/04/19 09:13:01;;;;;;;12.77;8.67;;;8.90;90.80;;;8.96;76.04;98348.25;5032440;28;20462;-74
2023/04/19 09:15:38;;;;;;;9.80;7.67;;;8.90;90.70;;;8.74;75.87;98334.81;5028074;28;20501;-73
2023/04/19 09:18:08;;;;;;;12.23;9.27;;;8.80;90.50;;;8.85;75.95;98331.59;5052567;28;20454;-74
2023/04/19 09:20:39;;;;;;;11.70;8.43;;;8.70;90.60;;;8.75;74.20;98314.94;5033754;28;20473;-73
2023/04/19 09:23:11;;;;;;;12.87;7.73;;;8.80;89.90;;;8.93;74.72;98327.91;5036140;28;20519;-71
2023/04/19 09:25:40;;;;;;;11.60;7.57;;;8.80;90.00;;;8.97;74.82;98329.19;5035262;28;21303;-72
2023/04/19 09:28:12;;;;;;;8.40;6.70;;;8.90;90.10;;;9.02;74.16;98325.91;5035736;28;20474;-75
2023/04/19 09:30:39;;;;;;;9.07;6.00;;;9.00;89.00;;;9.09;73.80;98332.16;5034206;28;20458;-71
2023/04/19 09:33:08;;;;;;;10.70;6.40;;;9.00;89.00;;;9.11;73.39;98329.25;5032615;28;20459;-73
2023/04/19 09:35:43;;;;;;;7.60;5.93;;;9.00;87.70;;;9.11;71.83;98329.25;5048054;28;21042;-73
2023/04/19 09:38:11;;;;;;;11.73;7.30;;;9.00;86.80;;;9.19;71.72;98329.13;5034452;28;20458;-73
2023/04/19 09:40:41;;;;;;;10.30;7.60;;;9.00;86.60;;;9.26;71.21;98326.47;5029806;28;20620;-74
2023/04/19 09:43:08;;;;;;;12.53;8.07;;;9.10;85.80;;;9.51;70.74;98321.38;5035291;28;20461;-73
2023/04/19 09:45:46;;;;;;;7.40;5.80;;;9.30;85.60;;;9.61;69.34;98313.72;5039427;28;20448;-75
2023/04/19 09:48:14;;;;;;;7.50;5.60;;;9.50;84.30;;;9.54;68.95;98307.50;5025636;28;20477;-73
2023/04/19 09:50:53;;;;;;;6.77;5.20;;;9.50;83.50;;;9.97;69.24;98317.16;5029556;28;20984;-74
2023/04/19 09:53:21;;;;;;;10.20;6.23;;;9.70;83.60;;;9.77;68.11;98296.34;5031611;28;20492;-73
2023/04/19 09:55:49;;;;;;;6.20;4.80;;;9.70;82.50;;;9.60;68.68;98303.97;5035512;28;20458;-73
2023/04/19 09:58:18;;;;;;;7.70;5.80;;;9.60;82.60;;;9.50;67.80;98317.03;5056474;28;20922;-73
2023/04/19 10:00:46;;;;;;;6.43;4.70;;;9.50;82.10;;;9.76;67.87;98304.66;5042765;28;20465;-73
2023/04/19 10:03:15;;;;;;;5.53;4.93;;;9.50;82.30;;;9.99;65.66;98295.38;5035470;28;20555;-73
2023/04/19 10:05:44;;;;;;;7.30;5.80;;;9.70;81.60;;;9.90;65.82;98246.97;5053222;28;20749;-73
2023/04/19 10:08:13;;;;;;;9.53;5.60;;;9.90;81.20;;;10.57;64.31;98294.00;5028943;28;20475;-73
2023/04/19 10:10:41;;;;;;;7.97;5.33;;;10.20;79.50;;;10.86;63.57;98300.00;5039263;28;20521;-73
2023/04/19 10:13:12;;;;;;;6.50;4.83;;;10.60;78.80;;;11.20;62.76;98308.84;5056431;28;20463;-72
2023/04/19 10:15:43;;;;;;;7.50;5.50;;;10.80;78.60;;;11.03;61.92;98293.09;5046319;28;21007;-72
2023/04/19 10:18:10;;;;;;;6.03;4.50;;;10.80;77.70;;;10.90;61.57;98301.22;5028868;28;20474;-74
2023/04/19 10:20:48;;;;;;;5.47;4.60;;;10.80;76.40;;;10.67;61.75;98282.75;5034990;28;20967;-74
2023/04/19 10:23:16;;;;;;;8.63;4.93;;;10.60;76.60;;;10.61;62.62;98295.22;5028934;28;20971;-72
2023/04/19 10:25:47;;;;;;;6.53;4.70;;;10.50;76.90;;;11.00;60.67;98293.53;5037451;28;20460;-74
2023/04/19 10:28:17;;;;;;;7.73;5.83;;;10.70;76.40;;;10.88;60.79;98300.63;5031066;28;20526;-74
2023/04/19 10:30:55;;;;;;;6.73;5.20;;;10.70;75.30;;;11.26;58.75;98286.34;5035690;28;20509;-73